Time;durP1;ratioP1;P1;durP2;ratioP2;P2;SDS_P1;SDS_P2;PMS_P1;PMS_P2;Temp;Humidity;BMP_temperature;BMP_pressure;BME280_temperature;BME280_humidity;BME280_pressure;Samples;Min_cycle;Max_cycle;Signal;HPM_P1;HPM_P2
2023/03/25 00:01:39;;;;;;;11.40;3.00;;;;;;;;;;5029982;28;20039;-78
2023/03/25 00:04:06;;;;;;;12.10;2.70;;;;;;;;;;5030267;28;20050;-77
2023/03/25 00:06:35;;;;;;;11.10;2.70;;;;;;;;;;5029236;28;20049;-77
2023/03/25 00:09:03;;;;;;;8.98;2.70;;;;;;;;;;5030071;28;20124;-77
2023/03/25 00:11:30;;;;;;;7.70;2.53;;;;;;;;;;5060637;28;20041;-77
2023/03/25 00:13:56;;;;;;;11.40;2.70;;;;;;;;;;5028641;28;20537;-77
2023/03/25 00:16:23;;;;;;;9.30;2.95;;;;;;;;;;5026779;28;20125;-77
2023/03/25 00:18:50;;;;;;;9.57;2.80;;;;;;;;;;5028148;28;20049;-77
2023/03/25 00:21:17;;;;;;;6.70;2.72;;;;;;;;;;5030164;28;20186;-78
2023/03/25 00:23:44;;;;;;;11.18;3.08;;;;;;;;;;5029671;28;20508;-78
2023/03/25 00:26:11;;;;;;;4.68;2.70;;;;;;;;;;5029071;28;20041;-78
2023/03/25 00:28:38;;;;;;;9.80;3.33;;;;;;;;;;5036848;28;20053;-78
2023/03/25 00:31:06;;;;;;;8.27;3.03;;;;;;;;;;5040125;28;20068;-78
2023/03/25 00:33:34;;;;;;;7.05;2.80;;;;;;;;;;5035050;28;20156;-78
2023/03/25 00:36:03;;;;;;;7.88;2.83;;;;;;;;;;5054697;28;20053;-77
2023/03/25 00:38:34;;;;;;;10.85;3.47;;;;;;;;;;5031725;28;20128;-77
2023/03/25 00:41:30;;;;;;;10.32;3.33;;;;;;;;;;5029361;28;20124;-77
2023/03/25 00:43:58;;;;;;;12.90;3.33;;;;;;;;;;5019159;28;20050;-77
2023/03/25 00:46:26;;;;;;;9.95;3.00;;;;;;;;;;5026748;28;20052;-77
2023/03/25 00:48:55;;;;;;;9.10;3.30;;;;;;;;;;5027271;28;20045;-77
2023/03/25 00:51:22;;;;;;;7.32;2.90;;;;;;;;;;5027271;28;20104;-78
2023/03/25 00:53:53;;;;;;;8.85;3.20;;;;;;;;;;5025838;28;20052;-77
2023/03/25 00:56:24;;;;;;;6.05;3.08;;;;;;;;;;5026232;28;20038;-77
2023/03/25 00:58:51;;;;;;;10.40;3.10;;;;;;;;;;5024850;28;20103;-78
2023/03/25 01:01:22;;;;;;;8.95;2.80;;;;;;;;;;5024987;28;20049;-78
2023/03/25 01:03:56;;;;;;;9.38;3.22;;;;;;;;;;5026109;28;20521;-77
2023/03/25 01:06:27;;;;;;;13.95;2.83;;;;;;;;;;5058932;28;20095;-77
2023/03/25 01:08:55;;;;;;;6.43;2.85;;;;;;;;;;5027565;28;20091;-77
2023/03/25 01:11:23;;;;;;;9.57;2.75;;;;;;;;;;5025484;28;20072;-77
2023/03/25 01:13:50;;;;;;;11.07;3.03;;;;;;;;;;5058325;28;20092;-76
2023/03/25 01:16:19;;;;;;;10.90;2.80;;;;;;;;;;5023351;28;20061;-77
2023/03/25 01:18:45;;;;;;;11.68;2.70;;;;;;;;;;5056712;28;20137;-79
2023/03/25 01:21:12;;;;;;;14.43;2.60;;;;;;;;;;5026127;28;20045;-78
2023/03/25 01:23:38;;;;;;;11.10;2.63;;;;;;;;;;5024815;28;20638;-77
2023/03/25 01:26:05;;;;;;;10.57;2.63;;;;;;;;;;5026393;28;20132;-77
2023/03/25 01:28:32;;;;;;;7.35;2.60;;;;;;;;;;5057317;28;20065;-77
2023/03/25 01:31:03;;;;;;;8.07;2.92;;;;;;;;;;5025836;28;20046;-77
2023/03/25 01:33:31;;;;;;;6.57;2.65;;;;;;;;;;5024202;28;20432;-78
2023/03/25 01:35:58;;;;;;;8.80;2.72;;;;;;;;;;5026453;28;20064;-77
2023/03/25 01:38:25;;;;;;;6.03;2.78;;;;;;;;;;5024323;28;20108;-78
2023/03/25 01:40:53;;;;;;;10.05;2.92;;;;;;;;;;5025264;28;20049;-78
2023/03/25 01:43:20;;;;;;;6.60;2.80;;;;;;;;;;5041316;28;20042;-78
2023/03/25 01:45:47;;;;;;;10.90;3.53;;;;;;;;;;5024779;28;20092;-77
2023/03/25 01:48:14;;;;;;;8.30;2.78;;;;;;;;;;5024382;28;20057;-78
2023/03/25 01:50:42;;;;;;;8.73;3.22;;;;;;;;;;5025064;28;20049;-78
2023/03/25 01:53:09;;;;;;;6.63;2.53;;;;;;;;;;5025119;28;20513;-78
2023/03/25 01:55:36;;;;;;;7.70;2.50;;;;;;;;;;5027318;28;20041;-77
2023/03/25 01:58:09;;;;;;;7.28;2.60;;;;;;;;;;5022474;28;20432;-78
2023/03/25 02:00:36;;;;;;;6.35;2.60;;;;;;;;;;5025840;28;20162;-78
2023/03/25 02:03:10;;;;;;;6.07;2.28;;;;;;;;;;5023621;28;20053;-78
2023/03/25 02:05:55;;;;;;;8.77;2.30;;;;;;;;;;5026054;28;20584;-78
2023/03/25 02:08:22;;;;;;;4.93;1.80;;;;;;;;;;5024551;28;20107;-78
2023/03/25 02:10:51;;;;;;;4.32;1.85;;;;;;;;;;5027044;28;20045;-78
2023/03/25 02:13:18;;;;;;;5.47;1.60;;;;;;;;;;5024959;28;20053;-78
2023/03/25 02:15:54;;;;;;;8.95;1.85;;;;;;;;;;5039296;28;20057;-77
2023/03/25 02:18:32;;;;;;;3.40;1.40;;;;;;;;;;5005321;28;20050;-77
2023/03/25 02:21:22;;;;;;;4.00;1.50;;;;;;;;;;5007403;28;20484;-78
2023/03/25 02:24:08;;;;;;;4.50;1.60;;;;;;;;;;5005794;28;20076;-78
2023/03/25 02:27:00;;;;;;;6.32;1.10;;;;;;;;;;5007408;28;20470;-79
2023/03/25 02:29:32;;;;;;;3.10;1.10;;;;;;;;;;5008437;28;20103;-78
2023/03/25 02:32:11;;;;;;;2.65;1.10;;;;;;;;;;5006875;28;20212;-79
2023/03/25 02:34:40;;;;;;;3.60;1.00;;;;;;;;;;5008152;28;20049;-78
2023/03/25 02:37:10;;;;;;;5.75;0.90;;;;;;;;;;5040938;28;20065;-78
2023/03/25 02:39:40;;;;;;;3.08;0.90;;;;;;;;;;5041985;28;20387;-78
2023/03/25 02:42:13;;;;;;;3.97;0.90;;;;;;;;;;5042470;28;20056;-78
2023/03/25 02:44:54;;;;;;;2.88;1.00;;;;;;;;;;5007947;28;20045;-79
2023/03/25 02:47:22;;;;;;;4.15;0.80;;;;;;;;;;4995507;28;20065;-78
2023/03/25 02:49:54;;;;;;;5.18;1.00;;;;;;;;;;5028325;28;20076;-79
2023/03/25 02:52:28;;;;;;;4.68;1.00;;;;;;;;;;5023986;28;20393;-78
2023/03/25 02:55:00;;;;;;;2.25;0.80;;;;;;;;;;5006707;28;20066;-78
2023/03/25 02:57:29;;;;;;;4.38;0.88;;;;;;;;;;5006526;28;20042;-78
2023/03/25 02:59:56;;;;;;;3.30;0.93;;;;;;;;;;5005839;28;20483;-79
2023/03/25 03:02:25;;;;;;;4.57;0.93;;;;;;;;;;5007788;28;20597;-78
2023/03/25 03:04:53;;;;;;;6.05;0.80;;;;;;;;;;5006606;28;20057;-78
2023/03/25 03:07:28;;;;;;;2.85;0.70;;;;;;;;;;5005401;28;20045;-76
2023/03/25 03:09:54;;;;;;;1.92;0.80;;;;;;;;;;5041611;28;20062;-77
2023/03/25 03:12:31;;;;;;;6.20;0.80;;;;;;;;;;5009017;28;20038;-77
2023/03/25 03:15:16;;;;;;;4.72;0.98;;;;;;;;;;5009465;28;20054;-77
2023/03/25 03:18:01;;;;;;;3.55;1.00;;;;;;;;;;5008794;28;20293;-78
2023/03/25 03:20:31;;;;;;;3.35;1.10;;;;;;;;;;5009487;28;20038;-78
2023/03/25 03:23:04;;;;;;;6.32;0.90;;;;;;;;;;5043101;28;20038;-79
2023/03/25 03:25:37;;;;;;;2.60;0.80;;;;;;;;;;5011212;28;20061;-79
2023/03/25 03:28:04;;;;;;;2.90;0.80;;;;;;;;;;5010101;28;20065;-78
2023/03/25 03:30:37;;;;;;;3.38;0.85;;;;;;;;;;5009570;28;20108;-77
2023/03/25 03:33:14;;;;;;;2.65;0.75;;;;;;;;;;5008854;28;20049;-77
2023/03/25 03:35:49;;;;;;;6.43;0.93;;;;;;;;;;5008942;28;20046;-77
2023/03/25 03:38:18;;;;;;;2.30;1.10;;;;;;;;;;5009632;28;20038;-78
2023/03/25 03:40:48;;;;;;;2.60;0.77;;;;;;;;;;5009114;28;20046;-77
2023/03/25 03:43:17;;;;;;;4.43;0.88;;;;;;;;;;5010100;28;20042;-78
2023/03/25 03:45:47;;;;;;;4.22;1.05;;;;;;;;;;5027962;28;20042;-77
2023/03/25 03:48:34;;;;;;;6.20;0.73;;;;;;;;;;5026077;28;20449;-77
2023/03/25 03:51:03;;;;;;;3.33;0.70;;;;;;;;;;5028573;28;20123;-78
2023/03/25 03:53:32;;;;;;;3.65;0.75;;;;;;;;;;5029852;28;20453;-78
2023/03/25 03:56:05;;;;;;;4.30;0.90;;;;;;;;;;5028726;28;20049;-78
2023/03/25 03:58:35;;;;;;;3.22;0.70;;;;;;;;;;5027496;28;20050;-76
2023/03/25 04:01:02;;;;;;;1.40;0.55;;;;;;;;;;5027842;28;20077;-76
2023/03/25 04:03:57;;;;;;;1.33;0.57;;;;;;;;;;5010325;28;20052;-77
2023/03/25 04:06:45;;;;;;;1.52;0.50;;;;;;;;;;5002520;28;20042;-77
2023/03/25 04:09:17;;;;;;;1.02;0.50;;;;;;;;;;5008521;28;20058;-77
2023/03/25 04:11:55;;;;;;;3.67;0.50;;;;;;;;;;5029018;28;20046;-77
2023/03/25 04:14:22;;;;;;;4.25;0.60;;;;;;;;;;5028816;28;20059;-78
2023/03/25 04:16:53;;;;;;;3.88;0.50;;;;;;;;;;5026602;28;20069;-76
2023/03/25 04:19:20;;;;;;;3.40;0.52;;;;;;;;;;5025135;28;20049;-77
2023/03/25 04:21:49;;;;;;;1.33;0.52;;;;;;;;;;5028124;28;20112;-77
2023/03/25 04:24:18;;;;;;;2.70;0.40;;;;;;;;;;5027923;28;20046;-77
2023/03/25 04:26:45;;;;;;;2.05;0.50;;;;;;;;;;5058962;28;20053;-77
2023/03/25 04:29:15;;;;;;;3.00;0.40;;;;;;;;;;5059473;28;20045;-77
2023/03/25 04:31:45;;;;;;;2.00;0.35;;;;;;;;;;5031911;28;20041;-77
2023/03/25 04:34:15;;;;;;;1.75;0.30;;;;;;;;;;5031173;28;20061;-76
2023/03/25 04:36:41;;;;;;;1.63;0.40;;;;;;;;;;5027715;28;20052;-76
2023/03/25 04:39:10;;;;;;;1.40;0.77;;;;;;;;;;5027913;28;20053;-76
2023/03/25 04:41:37;;;;;;;1.52;0.47;;;;;;;;;;5026394;28;20065;-77
2023/03/25 04:44:06;;;;;;;3.58;0.30;;;;;;;;;;5025256;28;20054;-79
2023/03/25 04:46:35;;;;;;;2.53;0.40;;;;;;;;;;5025562;28;20128;-78
2023/03/25 04:49:12;;;;;;;1.80;0.30;;;;;;;;;;5026220;28;20060;-77
2023/03/25 04:51:43;;;;;;;1.17;0.40;;;;;;;;;;5027138;28;20685;-76
2023/03/25 04:54:10;;;;;;;0.93;0.25;;;;;;;;;;5026083;28;20053;-76
2023/03/25 04:56:38;;;;;;;0.45;0.28;;;;;;;;;;5026177;28;20037;-77
2023/03/25 04:59:05;;;;;;;2.47;0.40;;;;;;;;;;5022385;28;20050;-76
2023/03/25 05:01:33;;;;;;;1.85;0.28;;;;;;;;;;5023838;28;20049;-76
2023/03/25 05:04:06;;;;;;;2.08;0.30;;;;;;;;;;5041236;28;20146;-76
2023/03/25 05:06:33;;;;;;;1.67;0.50;;;;;;;;;;5026267;28;20781;-77
2023/03/25 05:09:03;;;;;;;1.55;0.40;;;;;;;;;;5027250;28;20049;-76
2023/03/25 05:11:31;;;;;;;1.77;0.30;;;;;;;;;;5058029;28;20118;-76
2023/03/25 05:13:57;;;;;;;1.00;0.40;;;;;;;;;;5026778;28;20053;-75
2023/03/25 05:16:25;;;;;;;1.13;0.40;;;;;;;;;;5023025;28;20072;-76
2023/03/25 05:18:52;;;;;;;4.32;0.43;;;;;;;;;;5025054;28;20471;-77
2023/03/25 05:21:18;;;;;;;1.73;0.40;;;;;;;;;;5026791;28;20068;-77
2023/03/25 05:23:45;;;;;;;2.55;0.50;;;;;;;;;;5026122;28;20068;-77
2023/03/25 05:26:11;;;;;;;3.45;0.47;;;;;;;;;;5028117;28;20056;-76
2023/03/25 05:28:39;;;;;;;4.55;0.32;;;;;;;;;;5027907;28;20521;-76
2023/03/25 05:31:08;;;;;;;3.92;0.40;;;;;;;;;;5023682;28;20125;-76
2023/03/25 05:33:44;;;;;;;3.00;0.65;;;;;;;;;;5025213;28;20046;-75
2023/03/25 05:36:11;;;;;;;;;;;;;;;;;;5027122;28;20041;-77
2023/03/25 05:38:40;;;;;;;3.35;0.65;;;;;;;;;;5027222;28;19921;-77
2023/03/25 05:41:09;;;;;;;2.17;0.60;;;;;;;;;;5025847;28;20045;-77
2023/03/25 05:43:36;;;;;;;4.85;0.50;;;;;;;;;;5026067;28;20038;-77
2023/03/25 05:46:04;;;;;;;3.63;0.50;;;;;;;;;;5023772;28;20049;-77
2023/03/25 05:48:31;;;;;;;3.13;0.57;;;;;;;;;;5021094;28;20111;-76
2023/03/25 05:51:02;;;;;;;5.10;0.60;;;;;;;;;;5022361;28;20045;-77
2023/03/25 05:53:29;;;;;;;4.95;0.60;;;;;;;;;;5025325;28;20053;-77
2023/03/25 05:55:57;;;;;;;4.03;0.60;;;;;;;;;;5025976;28;20112;-77
2023/03/25 05:58:24;;;;;;;4.80;0.60;;;;;;;;;;5023245;28;20041;-77
2023/03/25 06:00:50;;;;;;;2.88;0.55;;;;;;;;;;5022740;28;20046;-78
2023/03/25 06:03:19;;;;;;;2.97;0.50;;;;;;;;;;5025455;28;20509;-77
2023/03/25 06:05:47;;;;;;;5.13;0.60;;;;;;;;;;5023616;28;20113;-77
2023/03/25 06:08:15;;;;;;;1.45;0.47;;;;;;;;;;5026106;28;20048;-77
2023/03/25 06:10:44;;;;;;;2.38;0.70;;;;;;;;;;5023741;28;20550;-78
2023/03/25 06:13:12;;;;;;;4.10;0.60;;;;;;;;;;5022905;28;20226;-77
2023/03/25 06:15:40;;;;;;;4.03;0.60;;;;;;;;;;5024877;28;20049;-77
2023/03/25 06:18:09;;;;;;;5.75;0.70;;;;;;;;;;5023741;28;20037;-77
2023/03/25 06:20:36;;;;;;;3.88;0.65;;;;;;;;;;5026369;28;20049;-77
2023/03/25 06:23:02;;;;;;;1.15;0.52;;;;;;;;;;5026213;28;20133;-78
2023/03/25 06:25:30;;;;;;;7.43;0.80;;;;;;;;;;5007248;28;20034;-77
2023/03/25 06:28:00;;;;;;;6.25;0.70;;;;;;;;;;5023176;28;20041;-78
2023/03/25 06:30:27;;;;;;;3.67;0.45;;;;;;;;;;5024641;28;20123;-77
2023/03/25 06:32:54;;;;;;;3.80;0.70;;;;;;;;;;5024476;28;20509;-78
2023/03/25 06:35:21;;;;;;;3.40;0.70;;;;;;;;;;5018909;28;20067;-77
2023/03/25 06:37:48;;;;;;;5.80;0.70;;;;;;;;;;5019299;28;20457;-77
2023/03/25 06:40:38;;;;;;;5.05;0.77;;;;;;;;;;5024096;28;20513;-76
2023/03/25 06:43:05;;;;;;;4.13;0.85;;;;;;;;;;5025163;28;20461;-77
2023/03/25 06:45:32;;;;;;;8.80;0.80;;;;;;;;;;5026371;28;20092;-78
2023/03/25 06:48:04;;;;;;;3.50;0.60;;;;;;;;;;5027057;28;20061;-76
2023/03/25 06:50:31;;;;;;;5.63;0.70;;;;;;;;;;5028866;28;20416;-77
2023/03/25 06:52:57;;;;;;;6.07;0.77;;;;;;;;;;5028887;28;20042;-77
2023/03/25 06:55:24;;;;;;;5.20;0.60;;;;;;;;;;5028823;28;20041;-78
2023/03/25 06:57:54;;;;;;;2.30;0.90;;;;;;;;;;5028163;28;20053;-78
2023/03/25 07:00:22;;;;;;;6.30;1.00;;;;;;;;;;5027600;28;20550;-78
2023/03/25 07:02:49;;;;;;;5.10;0.90;;;;;;;;;;5028094;28;20575;-78
2023/03/25 07:05:19;;;;;;;6.75;0.90;;;;;;;;;;5028252;28;20067;-77
2023/03/25 07:07:54;;;;;;;4.22;0.70;;;;;;;;;;5027812;28;20077;-77
2023/03/25 07:10:21;;;;;;;2.45;0.60;;;;;;;;;;5009638;28;20052;-77
2023/03/25 07:12:48;;;;;;;5.75;0.65;;;;;;;;;;5008647;28;20053;-77
2023/03/25 07:15:14;;;;;;;2.17;0.65;;;;;;;;;;5025701;28;20413;-77
2023/03/25 07:17:43;;;;;;;3.15;1.13;;;;;;;;;;5056715;28;20041;-77
2023/03/25 07:20:10;;;;;;;5.32;1.02;;;;;;;;;;5027774;28;20045;-77
2023/03/25 07:22:39;;;;;;;2.88;0.80;;;;;;;;;;5024706;28;20056;-76
2023/03/25 07:25:05;;;;;;;3.83;1.17;;;;;;;;;;5028182;28;20505;-77
2023/03/25 07:27:32;;;;;;;5.32;0.80;;;;;;;;;;5008928;28;20057;-77
2023/03/25 07:30:05;;;;;;;5.20;0.70;;;;;;;;;;5023906;28;20191;-76
2023/03/25 07:32:32;;;;;;;5.63;0.80;;;;;;;;;;5023654;28;20049;-77
2023/03/25 07:34:59;;;;;;;1.73;0.60;;;;;;;;;;5025226;28;20048;-76
2023/03/25 07:37:25;;;;;;;6.72;0.93;;;;;;;;;;5026810;28;20081;-76
2023/03/25 07:39:52;;;;;;;3.95;0.70;;;;;;;;;;5028722;28;20052;-76
2023/03/25 07:42:19;;;;;;;2.38;0.70;;;;;;;;;;5026843;28;20049;-78
2023/03/25 07:45:01;;;;;;;1.17;0.50;;;;;;;;;;5025879;28;20418;-76
2023/03/25 07:47:30;;;;;;;2.72;0.50;;;;;;;;;;5022410;28;20069;-77
2023/03/25 07:49:57;;;;;;;3.17;0.55;;;;;;;;;;5026441;28;20061;-77
2023/03/25 07:52:24;;;;;;;2.15;0.70;;;;;;;;;;5022139;28;20347;-77
2023/03/25 07:54:50;;;;;;;1.52;0.68;;;;;;;;;;5023790;28;20128;-77
2023/03/25 07:57:17;;;;;;;2.78;0.52;;;;;;;;;;5024980;28;20046;-76
2023/03/25 07:59:44;;;;;;;1.38;0.65;;;;;;;;;;5025051;28;20041;-76
2023/03/25 08:02:13;;;;;;;1.13;0.50;;;;;;;;;;5023953;28;20126;-76
2023/03/25 08:04:41;;;;;;;3.72;0.57;;;;;;;;;;5041940;28;20045;-75
2023/03/25 08:07:08;;;;;;;4.22;0.50;;;;;;;;;;4984618;28;20513;-75
2023/03/25 08:09:35;;;;;;;1.63;0.45;;;;;;;;;;5021144;28;20068;-74
2023/03/25 08:12:01;;;;;;;5.55;0.77;;;;;;;;;;5004235;28;20048;-76
2023/03/25 08:14:27;;;;;;;1.48;0.68;;;;;;;;;;5012950;28;20048;-76
2023/03/25 08:16:54;;;;;;;3.53;0.88;;;;;;;;;;4998498;28;20053;-76
2023/03/25 08:19:21;;;;;;;3.83;0.90;;;;;;;;;;5008171;28;20054;-75
2023/03/25 08:21:47;;;;;;;3.97;1.05;;;;;;;;;;5010580;28;20053;-76
2023/03/25 08:24:14;;;;;;;3.70;0.98;;;;;;;;;;5018543;28;20116;-76
2023/03/25 08:26:42;;;;;;;1.85;0.88;;;;;;;;;;5008078;28;20052;-76
2023/03/25 08:29:10;;;;;;;5.97;1.10;;;;;;;;;;5007363;28;20057;-76
2023/03/25 08:31:37;;;;;;;2.08;0.60;;;;;;;;;;5006650;28;20065;-74
2023/03/25 08:34:05;;;;;;;5.70;1.20;;;;;;;;;;5005922;28;20045;-75
2023/03/25 08:36:31;;;;;;;4.47;1.13;;;;;;;;;;5006086;28;20042;-75
2023/03/25 08:38:58;;;;;;;5.18;1.10;;;;;;;;;;5007170;28;20545;-76
2023/03/25 08:41:25;;;;;;;5.88;1.23;;;;;;;;;;5004488;28;20049;-78
2023/03/25 08:43:51;;;;;;;5.32;0.95;;;;;;;;;;5006700;28;20580;-78
2023/03/25 08:46:18;;;;;;;1.35;0.70;;;;;;;;;;5004227;28;20042;-77
2023/03/25 08:48:45;;;;;;;1.73;0.80;;;;;;;;;;5005100;28;20046;-76
2023/03/25 08:51:13;;;;;;;3.08;0.60;;;;;;;;;;5005197;28;20490;-78
2023/03/25 08:53:39;;;;;;;2.97;0.93;;;;;;;;;;5014900;28;20069;-76
2023/03/25 08:56:06;;;;;;;3.17;0.93;;;;;;;;;;5021899;28;20056;-78
2023/03/25 08:58:33;;;;;;;2.50;0.70;;;;;;;;;;5026798;28;20115;-78
2023/03/25 09:01:00;;;;;;;2.40;0.60;;;;;;;;;;5023763;28;20046;-76
2023/03/25 09:03:26;;;;;;;2.38;0.80;;;;;;;;;;5025942;28;20126;-77
2023/03/25 09:05:53;;;;;;;1.90;0.80;;;;;;;;;;5025435;28;20441;-78
2023/03/25 09:08:20;;;;;;;2.58;0.70;;;;;;;;;;5025488;28;20433;-78
2023/03/25 09:10:47;;;;;;;1.98;0.70;;;;;;;;;;5026247;28;20050;-78
2023/03/25 09:13:13;;;;;;;2.78;0.70;;;;;;;;;;5026091;28;20568;-75
2023/03/25 09:15:40;;;;;;;2.22;0.50;;;;;;;;;;5024095;28;20483;-76
2023/03/25 09:18:07;;;;;;;3.00;0.70;;;;;;;;;;5023224;28;20069;-77
2023/03/25 09:20:34;;;;;;;2.03;0.50;;;;;;;;;;5025630;28;20405;-78
2023/03/25 09:23:00;;;;;;;5.00;0.70;;;;;;;;;;5026139;28;20053;-76
2023/03/25 09:25:28;;;;;;;1.17;0.47;;;;;;;;;;5026124;28;20510;-76
2023/03/25 09:27:55;;;;;;;2.08;0.60;;;;;;;;;;5057508;28;20506;-75
2023/03/25 09:30:22;;;;;;;2.50;0.52;;;;;;;;;;5023569;28;20107;-76
2023/03/25 09:32:49;;;;;;;2.65;0.60;;;;;;;;;;5056576;28;20053;-76
2023/03/25 09:35:15;;;;;;;4.63;0.98;;;;;;;;;;5028512;28;20103;-76
2023/03/25 09:37:43;;;;;;;3.50;0.50;;;;;;;;;;5025225;28;20041;-76
2023/03/25 09:40:11;;;;;;;2.08;0.77;;;;;;;;;;5025894;28;20490;-79
2023/03/25 09:42:47;;;;;;;1.40;0.30;;;;;;;;;;5025871;28;20041;-77
2023/03/25 09:45:31;;;;;;;1.58;0.50;;;;;;;;;;5025082;28;20049;-76
2023/03/25 09:48:21;;;;;;;0.93;0.50;;;;;;;;;;5025007;28;20080;-76
2023/03/25 09:50:48;;;;;;;3.22;0.52;;;;;;;;;;5025468;28;20073;-76
2023/03/25 09:53:24;;;;;;;2.05;0.50;;;;;;;;;;5016962;28;20037;-76
2023/03/25 09:55:51;;;;;;;3.17;0.60;;;;;;;;;;5019238;28;20042;-76
2023/03/25 09:58:37;;;;;;;2.28;1.00;;;;;;;;;;5025404;28;20049;-76
2023/03/25 10:01:21;;;;;;;2.45;0.82;;;;;;;;;;5023688;28;20239;-76
2023/03/25 10:03:54;;;;;;;2.70;0.60;;;;;;;;;;5023809;28;20664;-78
2023/03/25 10:06:25;;;;;;;0.88;0.40;;;;;;;;;;5025471;28;20132;-76
2023/03/25 10:09:04;;;;;;;1.15;0.60;;;;;;;;;;5041853;28;20045;-76
2023/03/25 10:11:51;;;;;;;2.85;0.40;;;;;;;;;;5026962;28;20059;-76
2023/03/25 10:14:31;;;;;;;0.60;0.30;;;;;;;;;;5026413;28;20046;-76
2023/03/25 10:17:04;;;;;;;2.78;0.50;;;;;;;;;;5025668;28;20099;-76
2023/03/25 10:19:53;;;;;;;4.00;0.50;;;;;;;;;;5028347;28;20037;-76
2023/03/25 10:22:19;;;;;;;0.85;0.40;;;;;;;;;;5030844;28;20052;-76
2023/03/25 10:24:51;;;;;;;0.80;0.40;;;;;;;;;;5029657;28;20524;-76
2023/03/25 10:27:22;;;;;;;1.00;0.30;;;;;;;;;;5030310;28;20104;-76
2023/03/25 10:29:58;;;;;;;0.63;0.30;;;;;;;;;;5045692;28;20120;-77
2023/03/25 10:32:30;;;;;;;3.78;0.50;;;;;;;;;;5029762;28;20087;-76
2023/03/25 10:34:58;;;;;;;1.17;0.40;;;;;;;;;;5030802;28;20053;-77
2023/03/25 10:37:28;;;;;;;0.93;0.40;;;;;;;;;;5061406;28;20151;-77
2023/03/25 10:39:58;;;;;;;1.38;0.30;;;;;;;;;;5031091;28;20041;-77
2023/03/25 10:42:27;;;;;;;1.77;0.52;;;;;;;;;;5031422;28;20045;-77
2023/03/25 10:44:54;;;;;;;1.20;0.35;;;;;;;;;;5031467;28;20053;-78
2023/03/25 10:47:23;;;;;;;2.65;0.55;;;;;;;;;;5028663;28;20056;-79
2023/03/25 10:49:51;;;;;;;1.17;0.28;;;;;;;;;;5031103;28;20052;-77
2023/03/25 10:52:18;;;;;;;1.15;0.30;;;;;;;;;;5057235;28;20042;-77
2023/03/25 10:54:47;;;;;;;1.50;0.25;;;;;;;;;;5024015;28;20049;-76
2023/03/25 10:57:17;;;;;;;3.35;0.50;;;;;;;;;;5029160;28;20045;-76
2023/03/25 10:59:50;;;;;;;2.70;0.52;;;;;;;;;;5033312;28;20069;-76
2023/03/25 11:02:21;;;;;;;0.60;0.20;;;;;;;;;;5046039;28;20047;-76
2023/03/25 11:04:51;;;;;;;0.85;0.30;;;;;;;;;;5034496;28;20065;-77
2023/03/25 11:07:19;;;;;;;0.82;0.30;;;;;;;;;;5033003;28;20049;-77
2023/03/25 11:09:46;;;;;;;1.55;0.60;;;;;;;;;;5031396;28;20061;-77
2023/03/25 11:12:16;;;;;;;0.80;0.50;;;;;;;;;;5028213;28;20046;-77
2023/03/25 11:14:43;;;;;;;2.53;0.40;;;;;;;;;;5026352;28;20388;-77
2023/03/25 11:17:13;;;;;;;0.52;0.30;;;;;;;;;;5025691;28;20053;-77
2023/03/25 11:19:43;;;;;;;2.65;0.50;;;;;;;;;;5043694;28;20572;-77
2023/03/25 11:22:30;;;;;;;2.33;0.50;;;;;;;;;;5028692;28;20042;-76
2023/03/25 11:24:59;;;;;;;2.03;0.50;;;;;;;;;;5027227;28;20049;-77
2023/03/25 11:27:27;;;;;;;2.00;0.50;;;;;;;;;;5027822;28;20569;-77
2023/03/25 11:29:55;;;;;;;0.63;0.20;;;;;;;;;;5027542;28;20076;-78
2023/03/25 11:32:23;;;;;;;1.58;0.40;;;;;;;;;;5027779;28;20485;-78
2023/03/25 11:34:52;;;;;;;1.90;0.47;;;;;;;;;;5028161;28;20095;-78
2023/03/25 11:37:21;;;;;;;2.78;0.40;;;;;;;;;;5028426;28;20172;-77
2023/03/25 11:39:54;;;;;;;1.50;0.50;;;;;;;;;;5032045;28;20049;-78
2023/03/25 11:42:32;;;;;;;4.18;0.47;;;;;;;;;;5031126;28;20049;-77
2023/03/25 11:45:01;;;;;;;2.05;0.50;;;;;;;;;;5026250;28;20327;-76
2023/03/25 11:47:37;;;;;;;2.42;0.40;;;;;;;;;;5028056;28;20041;-77
2023/03/25 11:50:05;;;;;;;1.02;0.45;;;;;;;;;;5046335;28;20101;-76
2023/03/25 11:52:41;;;;;;;2.28;0.30;;;;;;;;;;5023985;28;20060;-77
2023/03/25 11:55:17;;;;;;;1.33;0.40;;;;;;;;;;5020357;28;20037;-77
2023/03/25 11:57:46;;;;;;;2.47;0.40;;;;;;;;;;5027842;28;20507;-77
2023/03/25 12:00:21;;;;;;;1.38;0.43;;;;;;;;;;5026325;28;20095;-77
2023/03/25 12:02:57;;;;;;;3.30;0.50;;;;;;;;;;5062331;28;20121;-77
2023/03/25 12:05:24;;;;;;;2.38;0.40;;;;;;;;;;5060444;28;20506;-77
2023/03/25 12:07:58;;;;;;;2.90;0.50;;;;;;;;;;5028092;28;20402;-79
2023/03/25 12:10:39;;;;;;;1.85;0.40;;;;;;;;;;5043184;28;20068;-77
2023/03/25 12:13:09;;;;;;;1.80;0.40;;;;;;;;;;5013969;28;20037;-77
2023/03/25 12:15:36;;;;;;;1.50;0.52;;;;;;;;;;5006155;28;20411;-78
2023/03/25 12:18:06;;;;;;;2.40;0.50;;;;;;;;;;5004271;28;20135;-77
2023/03/25 12:20:39;;;;;;;2.40;0.60;;;;;;;;;;5006994;28;20549;-76
2023/03/25 12:23:18;;;;;;;3.15;0.63;;;;;;;;;;5003682;28;20168;-77
2023/03/25 12:26:01;;;;;;;4.40;0.68;;;;;;;;;;5003450;28;20052;-77
2023/03/25 12:28:31;;;;;;;2.05;0.50;;;;;;;;;;5003277;28;20438;-77
2023/03/25 12:31:03;;;;;;;2.17;0.52;;;;;;;;;;5003856;28;20050;-77
2023/03/25 12:33:45;;;;;;;1.90;0.65;;;;;;;;;;5001893;28;20300;-77
2023/03/25 12:36:27;;;;;;;2.55;0.50;;;;;;;;;;4999540;28;20300;-79
2023/03/25 12:38:56;;;;;;;3.88;0.50;;;;;;;;;;5007122;28;20490;-77
2023/03/25 12:41:23;;;;;;;1.10;0.50;;;;;;;;;;5003323;28;20045;-77
2023/03/25 12:44:02;;;;;;;5.35;1.02;;;;;;;;;;5006171;28;20069;-78
2023/03/25 12:46:34;;;;;;;3.00;0.70;;;;;;;;;;5004747;28;20463;-78
2023/03/25 12:49:07;;;;;;;3.90;0.73;;;;;;;;;;5019830;28;20050;-77
2023/03/25 12:51:51;;;;;;;4.35;1.10;;;;;;;;;;5021215;28;20073;-78
2023/03/25 12:54:23;;;;;;;5.40;0.70;;;;;;;;;;5013996;28;20135;-77
2023/03/25 12:57:23;;;;;;;2.97;0.85;;;;;;;;;;5023993;28;20065;-78
2023/03/25 12:59:50;;;;;;;2.85;0.68;;;;;;;;;;4990762;28;20137;-78
2023/03/25 13:02:32;;;;;;;2.13;0.82;;;;;;;;;;5023430;28;20479;-78
2023/03/25 13:05:05;;;;;;;3.38;1.00;;;;;;;;;;5022092;28;20072;-77
2023/03/25 13:07:36;;;;;;;4.35;0.80;;;;;;;;;;5022530;28;20125;-78
2023/03/25 13:10:06;;;;;;;7.82;1.08;;;;;;;;;;5023684;28;20080;-78
2023/03/25 13:12:36;;;;;;;4.53;0.90;;;;;;;;;;5025624;28;20149;-78
2023/03/25 13:15:06;;;;;;;1.67;0.60;;;;;;;;;;5025981;28;20448;-78
2023/03/25 13:17:36;;;;;;;2.58;0.75;;;;;;;;;;5023496;28;20071;-78
2023/03/25 13:20:08;;;;;;;5.32;1.00;;;;;;;;;;5026238;28;20079;-78
2023/03/25 13:22:38;;;;;;;2.75;0.73;;;;;;;;;;5026958;28;20071;-78
2023/03/25 13:25:07;;;;;;;4.28;0.98;;;;;;;;;;5027333;28;20041;-78
2023/03/25 13:27:37;;;;;;;5.32;1.08;;;;;;;;;;5026897;28;20040;-77
2023/03/25 13:30:07;;;;;;;5.93;0.93;;;;;;;;;;5025413;28;20253;-79
2023/03/25 13:32:49;;;;;;;5.25;0.95;;;;;;;;;;5003608;28;20053;-78
2023/03/25 13:35:15;;;;;;;5.30;1.00;;;;;;;;;;5024722;28;20460;-77
2023/03/25 13:37:44;;;;;;;4.13;0.93;;;;;;;;;;5023996;28;20041;-78
2023/03/25 13:40:23;;;;;;;7.18;1.15;;;;;;;;;;5024932;28;20071;-77
2023/03/25 13:42:50;;;;;;;4.80;0.95;;;;;;;;;;5025259;28;20103;-77
2023/03/25 13:45:18;;;;;;;3.15;0.90;;;;;;;;;;5023780;28;20037;-78
2023/03/25 13:48:03;;;;;;;4.82;0.93;;;;;;;;;;5023152;28;20051;-76
2023/03/25 13:50:31;;;;;;;2.92;0.57;;;;;;;;;;5023525;28;20041;-76
2023/03/25 13:53:02;;;;;;;2.15;0.30;;;;;;;;;;5015535;28;20046;-76
2023/03/25 13:55:51;;;;;;;0.85;0.20;;;;;;;;;;5014162;28;20049;-79
2023/03/25 13:58:37;;;;;;;0.20;0.13;;;;;;;;;;5001903;28;20505;-76
2023/03/25 14:01:07;;;;;;;1.15;0.20;;;;;;;;;;5016180;28;20091;-78
2023/03/25 14:03:40;;;;;;;1.27;0.22;;;;;;;;;;5010982;28;20506;-78
2023/03/25 14:06:07;;;;;;;1.58;0.30;;;;;;;;;;5013719;28;20103;-77
2023/03/25 14:08:58;;;;;;;0.32;0.20;;;;;;;;;;5012409;28;20042;-77
2023/03/25 14:11:24;;;;;;;2.70;0.50;;;;;;;;;;5008721;28;20129;-77
2023/03/25 14:13:53;;;;;;;1.67;0.40;;;;;;;;;;5017076;28;20450;-77
2023/03/25 14:16:26;;;;;;;2.08;0.40;;;;;;;;;;5016202;28;20045;-77
2023/03/25 14:18:54;;;;;;;3.80;0.50;;;;;;;;;;5019225;28;20045;-77
2023/03/25 14:21:37;;;;;;;1.90;0.30;;;;;;;;;;5032329;28;20052;-75
2023/03/25 14:24:10;;;;;;;0.77;0.30;;;;;;;;;;5039690;28;20045;-76
2023/03/25 14:26:41;;;;;;;1.33;0.38;;;;;;;;;;4997401;28;20045;-76
2023/03/25 14:29:15;;;;;;;1.17;0.40;;;;;;;;;;5014915;28;20045;-78
2023/03/25 14:31:58;;;;;;;2.28;0.43;;;;;;;;;;5021035;28;20053;-77
2023/03/25 14:34:27;;;;;;;2.95;0.25;;;;;;;;;;5022920;28;20049;-76
2023/03/25 14:36:54;;;;;;;0.77;0.30;;;;;;;;;;5023690;28;20494;-77
2023/03/25 14:39:27;;;;;;;2.60;0.30;;;;;;;;;;5024729;28;20053;-78
2023/03/25 14:42:05;;;;;;;1.98;0.30;;;;;;;;;;5022300;28;20057;-78
2023/03/25 14:44:33;;;;;;;1.02;0.30;;;;;;;;;;5022477;28;20055;-78
2023/03/25 14:47:01;;;;;;;4.57;0.50;;;;;;;;;;5020819;28;20517;-77
2023/03/25 14:49:52;;;;;;;4.38;0.60;;;;;;;;;;5023842;28;20544;-77
2023/03/25 14:52:29;;;;;;;1.65;0.50;;;;;;;;;;5022218;28;20076;-78
2023/03/25 14:54:58;;;;;;;5.88;0.50;;;;;;;;;;5027380;28;20109;-77
2023/03/25 14:57:27;;;;;;;1.40;0.40;;;;;;;;;;5021977;28;20045;-77
2023/03/25 14:59:57;;;;;;;4.40;0.60;;;;;;;;;;5024817;28;20041;-76
2023/03/25 15:02:25;;;;;;;2.55;0.50;;;;;;;;;;5055129;28;20506;-75
2023/03/25 15:04:57;;;;;;;1.10;0.47;;;;;;;;;;5043877;28;20149;-76